809 км

Карта отелей и гостиниц, располагающихся рядом с аэропортом 809 км :

809 км Саратовская область 51° 40' 32.0412" N, 45° 29' 18.8412" E
809 км Саратовская область 51° 40' 32.0412" N, 45° 29' 18.8412" E
Код аэродрома ИКАО
HGE0
Код аэродрома RU
ХГЕ0
Координаты
N51.67557° E045.48857°
Превышение над уровнем моря
255
Основная полоса
14/32
Курс магнитный
137,9/317,9
Длина основной ВПП
30
Ширина основной ВПП
30
Покрытие основной ВПП
Твёрдое
Освещение ВПП
Нет
Тип: 
Вертодром
Класс аэродрома: 
Принадлежность: 
МО
Статус: 
Действующий
Сайт: 
E-mail аэродрома: 
Страна: 
Россия
Регион: 
Саратовская область
Город: 
Дополнительная информация: 
Оператор: РВСН.

Найти трансфер

С помощью этой формы Вы можете найти трансфер из аэропорта 809 км в город, аэропорт или вокзал:

Карта места

Javascript is required to view this map.

Погода в аэропортах:

Авиационная погода в Кокшетау

Регион: 
Погода METAR: 
UACK 281300Z 09010MPS 7000 -DZ OVC006 03/02 Q1010 R02/250250 NOSIG RMK QBB190 QFE734/0978
Время наблюдения
2021-09-28T13:00:00Z
Температура C
3.0
Точка росы
2.0
Направление ветра
90
Скорость ветра (узлы)
19
Метео видимость
4.35
Явления погоды
-DZ
Условия полета
IFR
Аэропорт подробнее: 

Авиационная погода в Магнитогорске

Погода METAR: 
USCM 281200Z 03010MPS 4500 -SHRA BR OVC010CB 02/02 Q1016 R36/290055 TEMPO 02015MPS 1200 SHSNRA BR VV004 RMK QFE724
Время наблюдения
2021-09-28T12:00:00Z
Температура C
2.0
Точка росы
2.0
Направление ветра
30
Скорость ветра (узлы)
19
Метео видимость
2.8
Явления погоды
-SHRA BR
Условия полета
IFR
Аэропорт подробнее: 

Авиационная погода в Нальчике

Регион: 
Погода METAR: 
URMN 281200Z 05003MPS 9999 -SHRA BKN022CB 14/09 Q1018 R24/110060 NOSIG RMK QFE727
Время наблюдения
2021-09-28T12:00:00Z
Температура C
14.0
Точка росы
9.0
Направление ветра
50
Скорость ветра (узлы)
6
Метео видимость
6.21
Явления погоды
-SHRA
Условия полета
MVFR
Аэропорт подробнее: 

Авиационная погода в Минеральные Воды

Регион: 
Погода METAR: 
URMM 281200Z 00000MPS 9999 -SHRA BKN023CB 11/09 Q1020 R12/290250 NOSIG RMK QFE737/0982
Время наблюдения
2021-09-28T12:00:00Z
Температура C
11.0
Точка росы
9.0
Направление ветра
0
Скорость ветра (узлы)
0
Метео видимость
6.21
Явления погоды
-SHRA
Условия полета
MVFR
Аэропорт подробнее: